Flight Track Log - Related Links

Times and Time Zones

All times are in EDT time to prevent confusion due to time zone crossing. See the GJS3657 flight status page for this flight to view local times or setup timezone preferences in your user account.

Time Position Orientation Groundspeed Altitude Reporting Facility
EDT Latitude Longitude Course Direction KTS MPH feet Rate Location/Type
Wed 12:53:30 PM 39.8833 -104.5667 75° East 202 232 7,200  Level Denver TRACON
Wed 12:54:30 PM 39.9000 -104.4833 75° East 249 287 8,900 2,000 Climbing Denver TRACON
Wed 12:55:36 PM 39.9167 -104.3833 78° East 285 328 11,400 2,313 Climbing Denver TRACON
Wed 12:56:06 PM 39.9344 -104.3267 68° East 283 326 12,600 1,761 Climbing Denver Center
Wed 12:57:08 PM 39.9550 -104.2133 77° East 320 368 14,100 1,588 Climbing Denver Center
Wed 12:58:22 PM 39.9750 -104.0781 79° East 351 404 16,200 1,971 Climbing Denver Center
Wed 12:59:25 PM 39.9997 -103.9164 79° East 370 426 18,600 2,160 Climbing Denver Center
Wed 01:00:27 PM 40.0186 -103.7806 80° East 379 436 20,700 1,935 Climbing Denver Center
Wed 01:01:29 PM 40.0431 -103.6339 78° East 382 440 22,600 1,790 Climbing Denver Center
Wed 01:02:31 PM 40.0664 -103.4931 78° East 397 457 24,400 1,548 Climbing Denver Center
Wed 01:03:33 PM 40.0894 -103.3500 78° East 402 463 25,800 1,355 Climbing Denver Center
Wed 01:04:35 PM 40.1133 -103.2017 78° East 417 480 27,200 1,403 Climbing Denver Center
Wed 01:05:37 PM 40.1378 -103.0503 78° East 424 488 28,700 1,403 Climbing Denver Center
Wed 01:06:39 PM 40.1622 -102.8997 78° East 425 489 30,100 1,113 Climbing Denver Center
Wed 01:07:41 PM 40.1900 -102.7161 79° East 430 495 31,000 919 Climbing Denver Center
Wed 01:08:43 PM 40.2153 -102.5489 79° East 442 509 32,000 919 Climbing Denver Center
Wed 01:09:45 PM 40.2392 -102.3969 78° East 446 513 32,900 919 Climbing Denver Center
Wed 01:10:47 PM 40.2611 -102.2442 79° East 448 516 33,900 1,016 Climbing Denver Center
Wed 01:11:49 PM 40.2886 -102.0678 78° East 445 512 35,000 1,008 Climbing Denver Center
Wed 01:12:52 PM 40.3106 -101.9169 79° East 443 510 36,000 864 Climbing Denver Center
Wed 01:13:54 PM 40.3372 -101.7406 79° East 443 510 36,800 629 Climbing Denver Center
Wed 01:14:56 PM 40.3592 -101.5881 79° East 446 513 37,300 532 Climbing Denver Center
Wed 01:15:58 PM 40.3858 -101.4086 79° East 451 519 37,900 484 Climbing Denver Center
Wed 01:17:00 PM 40.4181 -101.2561 74° East 453 521 38,300 484 Climbing Denver Center
Wed 01:18:02 PM 40.4544 -101.0786 75° East 454 522 38,900 339 Climbing Denver Center
Wed 01:19:04 PM 40.4850 -100.9269 75° East 452 520 39,000 48 Climbing Denver Center
Wed 01:20:06 PM 40.5225 -100.7456 75° East 463 533 39,000  Level Denver Center
Wed 01:21:08 PM 40.5536 -100.5853 76° East 476 548 39,000  Level Denver Center
Wed 01:22:10 PM 40.5922 -100.3969 75° East 482 555 39,000  Level Denver Center
Wed 01:23:12 PM 40.6247 -100.2339 75° East 484 557 39,000  Level Denver Center
Wed 01:24:14 PM 40.6575 -100.0686 75° East 488 562 39,000  Level Denver Center
Wed 01:25:16 PM 40.6950 -99.8747 76° East 490 564 39,000  Level Denver Center
Wed 01:26:18 PM 40.7297 -99.6933 76° East 493 567 39,000  Level Denver Center
Wed 01:27:20 PM 40.7564 -99.5542 76° East 492 566 39,000  Level Denver Center
Wed 01:28:22 PM 40.7947 -99.3469 76° East 488 562 39,000  Level Denver Center
Wed 01:29:24 PM 40.8336 -99.1411 76° East 485 558 39,000  Level Denver Center
Wed 01:30:28 PM 40.8625 -98.9842 76° East 484 557 39,000  Level Minneapolis Center
Wed 01:31:30 PM 40.9000 -98.7761 77° East 484 557 39,000  Level Minneapolis Center
Wed 01:32:32 PM 40.9322 -98.6039 76° East 484 557 39,000  Level Minneapolis Center
Wed 01:33:34 PM 40.9636 -98.4261 77° East 481 554 39,000  Level Minneapolis Center
Wed 01:34:36 PM 41.0069 -98.2614 71° East 478 550 39,000  Level Minneapolis Center
Wed 01:35:38 PM 41.0739 -98.1078 60° Northeast 483 556 39,000  Level Minneapolis Center
Wed 01:36:40 PM 41.1406 -97.9536 60° Northeast 483 556 39,000  Level Minneapolis Center
Wed 01:37:42 PM 41.2194 -97.7675 61° Northeast 483 556 39,000  Level Minneapolis Center
Wed 01:38:44 PM 41.2853 -97.6111 61° Northeast 484 557 39,000  Level Minneapolis Center
Wed 01:39:46 PM 41.3503 -97.4575 61° Northeast 482 555 39,000  Level Minneapolis Center
Wed 01:40:48 PM 41.4147 -97.3044 61° Northeast 479 551 39,000  Level Minneapolis Center
Wed 01:41:50 PM 41.4803 -97.1503 60° Northeast 477 549 39,000  Level Minneapolis Center
Wed 01:42:53 PM 41.5447 -96.9931 61° Northeast 479 551 39,000  Level Minneapolis Center
Wed 01:43:55 PM 41.6103 -96.8369 61° Northeast 480 552 39,000  Level Minneapolis Center
Wed 01:44:57 PM 41.6886 -96.6467 61° Northeast 483 556 39,000  Level Minneapolis Center
Wed 01:45:59 PM 41.7525 -96.4886 62° Northeast 481 554 39,000  Level Minneapolis Center
Wed 01:47:01 PM 41.8172 -96.3303 61° Northeast 481 554 39,000 -97 Level Minneapolis Center
Wed 01:48:03 PM 41.8814 -96.1708 62° Northeast 481 554 38,800 -629 Descending Minneapolis Center
Wed 01:49:05 PM 41.9450 -96.0100 62° Northeast 485 558 37,700 -871 Descending Minneapolis Center
Wed 01:50:07 PM 42.0100 -95.8494 61° Northeast 486 559 37,000 -339 Descending Minneapolis Center
Wed 01:51:09 PM 42.0728 -95.6883 62° Northeast 486 559 37,000 -387 Level Minneapolis Center
Wed 01:52:11 PM 42.1492 -95.4961 62° Northeast 486 559 36,200 -871 Descending Minneapolis Center
Wed 01:53:13 PM 42.2144 -95.3303 62° Northeast 496 571 35,200 -581 Descending Minneapolis Center
Wed 01:54:15 PM 42.2797 -95.1611 62° Northeast 506 582 35,000 -96 Descending Minneapolis Center
Wed 01:55:18 PM 42.3428 -95.0006 62° Northeast 489 563 35,000  Level Minneapolis Center
Wed 01:56:20 PM 42.4033 -94.8436 62° Northeast 474 545 35,000  Level Minneapolis Center
Wed 01:57:22 PM 42.4606 -94.6817 64° Northeast 476 548 35,000  Level Minneapolis Center
Wed 01:58:24 PM 42.4822 -94.4850 81° East 470 541 35,000  Level Minneapolis Center
Wed 01:59:30 PM 42.5019 -94.3108 81° East 473 544 35,000  Level Minneapolis Center
Wed 02:00:32 PM 42.5278 -94.0997 81° East 477 549 35,000 -290 Level Minneapolis Center
Wed 02:01:34 PM 42.5628 -93.9272 75° East 482 555 34,400 -774 Descending Minneapolis Center
Wed 02:02:36 PM 42.6519 -93.7906 48° Northeast 485 558 33,400 -677 Descending Minneapolis Center
Wed 02:03:38 PM 42.7722 -93.7153 25° Northeast 478 550 33,000 -194 Descending Minneapolis Center
Wed 02:04:40 PM 42.9056 -93.6753 12° North 488 562 33,000  Level Minneapolis Center
Wed 02:05:42 PM 43.0656 -93.6244 13° North 495 570 33,000  Level Minneapolis Center
Wed 02:06:44 PM 43.1981 -93.5814 13° North 493 567 33,000 -145 Level Minneapolis Center
Wed 02:07:46 PM 43.3300 -93.5481 10° North 490 564 32,700 -1,742 Descending Minneapolis Center
Wed 02:08:48 PM 43.4606 -93.5375 North 478 550 29,400 -3,194 Descending Minneapolis Center
Wed 02:09:50 PM 43.6000 -93.5228 North 477 549 26,100 -3,097 Descending Minneapolis Center
Wed 02:10:52 PM 43.7258 -93.5103 North 463 533 23,000 -2,855 Descending Minneapolis Center
Wed 02:11:54 PM 43.8456 -93.5003 North 440 506 20,200 -2,903 Descending Minneapolis Center
Wed 02:12:56 PM 43.9797 -93.4875 North 408 470 17,000 -2,784 Descending Minneapolis Center
Wed 02:13:59 PM 44.0831 -93.4789 North 379 436 14,400 -2,400 Descending Minneapolis Center
Wed 02:15:01 PM 44.1828 -93.4692 North 360 414 12,000 -1,645 Descending Minneapolis Center
Wed 02:16:03 PM 44.2761 -93.4303 17° North 357 411 11,000 -484 Descending Minneapolis Center
Wed 02:17:05 PM 44.3681 -93.3675 26° Northeast 366 421 11,000  Level Minneapolis Center
Wed 02:18:07 PM 44.4592 -93.3039 26° Northeast 367 422 11,000  Level Minneapolis Center
Wed 02:19:09 PM 44.5658 -93.2289 27° Northeast 360 414 11,000 -97 Level Minneapolis Center
Wed 02:20:11 PM 44.6564 -93.1997 13° North 344 396 10,800 -871 Descending Minneapolis Center
Wed 02:21:13 PM 44.7422 -93.2522 337° Northwest 307 353 9,200 -1,355 Descending Minneapolis Center
Wed 02:22:15 PM 44.8128 -93.2969 336° Northwest 291 335 8,000 -919 Descending Minneapolis Center
Wed 02:23:17 PM 44.8583 -93.3800 308° West 272 313 7,300 -968 Descending Minneapolis Center
Wed 02:24:19 PM 44.8983 -93.4714 302° West 271 312 6,000 -1,065 Descending Minneapolis Center
Wed 02:25:21 PM 44.9492 -93.4939 343° North 223 257 5,100 -1,016 Descending Minneapolis Center
Wed 02:26:23 PM 44.9494 -93.4247 90° East 175 201 3,900 -1,113 Descending Minneapolis Center
Wed 02:27:25 PM 44.9386 -93.3506 102° East 164 189 2,800 -919 Descending Minneapolis Center
Wed 02:28:27 PM 44.9161 -93.3000 122° Southeast 152 175 2,000 -726 Descending Minneapolis Center
Wed 02:29:29 PM 44.8986 -93.2592 121° Southeast 125 144 1,300 -677 Descending Minneapolis Center
Wed 02:31:00 PM 44.8820 -93.2218 71° East  Level Estimated
Wed 02:38:00 PM 44.8820 -93.2218 71° East  Level Estimated

Login

Don't have an account? Register now (free) for customized features, flight alerts, and more!